createdAt,value
2017-05-30T00:01:05.353Z,26.98
2017-05-30T00:03:33.231Z,28.18
2017-05-30T00:06:00.733Z,27.22
2017-05-30T00:08:28.610Z,26.76
2017-05-30T00:10:56.495Z,26.90
2017-05-30T00:13:24.853Z,28.68
2017-05-30T00:15:52.750Z,28.48
2017-05-30T00:18:20.518Z,26.78
2017-05-30T00:20:48.516Z,25.82
2017-05-30T00:23:16.405Z,25.20
2017-05-30T00:25:44.288Z,27.58
2017-05-30T00:28:12.207Z,25.48
2017-05-30T00:30:40.083Z,31.86
2017-05-30T00:33:07.963Z,30.04
2017-05-30T00:35:35.868Z,28.88
2017-05-30T00:38:03.745Z,29.40
2017-05-30T00:40:31.630Z,27.72
2017-05-30T00:42:59.541Z,24.64
2017-05-30T00:45:27.428Z,29.96
2017-05-30T00:47:55.305Z,26.32
2017-05-30T00:50:23.217Z,27.96
2017-05-30T00:52:51.095Z,27.78
2017-05-30T00:55:18.961Z,30.52
2017-05-30T00:57:46.865Z,27.36
2017-05-30T01:00:14.354Z,24.46
2017-05-30T01:02:42.237Z,27.98
2017-05-30T01:05:09.749Z,27.74
2017-05-30T01:07:37.255Z,25.64
2017-05-30T01:10:05.149Z,26.74
2017-05-30T01:12:33.384Z,25.64
2017-05-30T01:15:01.257Z,25.24
2017-05-30T01:17:28.739Z,29.68
2017-05-30T01:19:56.641Z,28.82
2017-05-30T01:22:24.516Z,25.56
2017-05-30T01:24:52.403Z,24.82
2017-05-30T01:27:20.293Z,25.26
2017-05-30T01:29:47.792Z,27.36
2017-05-30T01:32:15.670Z,26.36
2017-05-30T01:34:43.584Z,29.98
2017-05-30T01:37:11.473Z,25.72
2017-05-30T01:39:39.361Z,27.78
2017-05-30T01:42:07.459Z,25.94
2017-05-30T01:44:35.334Z,27.42
2017-05-30T01:47:03.208Z,28.28
2017-05-30T01:49:31.110Z,25.44
2017-05-30T01:51:58.606Z,26.74
2017-05-30T01:54:26.481Z,29.56
2017-05-30T01:56:54.748Z,25.40
2017-05-30T01:59:22.637Z,29.16
2017-05-30T02:01:50.509Z,29.28
2017-05-30T02:04:18.402Z,26.60
2017-05-30T02:06:46.298Z,25.96
2017-05-30T02:09:13.907Z,25.12
2017-05-30T02:11:41.817Z,29.84
2017-05-30T02:14:09.708Z,27.64
2017-05-30T02:16:37.590Z,26.36
2017-05-30T02:19:05.845Z,27.64
2017-05-30T02:21:33.738Z,24.00
2017-05-30T02:24:01.188Z,29.24
2017-05-30T02:26:29.076Z,26.66
2017-05-30T02:28:56.928Z,26.08
2017-05-30T02:31:24.781Z,27.00
2017-05-30T02:33:52.664Z,29.12
2017-05-30T02:36:20.128Z,28.70
2017-05-30T02:38:47.976Z,28.74
2017-05-30T02:41:15.936Z,31.30
2017-05-30T02:43:43.788Z,29.46
2017-05-30T02:46:11.637Z,29.44
2017-05-30T02:48:39.767Z,27.44
2017-05-30T02:51:07.612Z,28.90
2017-05-30T02:53:35.456Z,24.56
2017-05-30T02:56:03.668Z,26.68
2017-05-30T02:58:31.516Z,29.08
2017-05-30T03:00:59.367Z,28.46
2017-05-30T03:03:26.849Z,29.56
2017-05-30T03:05:54.700Z,28.62
2017-05-30T03:08:22.552Z,32.06
2017-05-30T03:10:50.419Z,28.36
2017-05-30T03:13:17.871Z,33.28
2017-05-30T03:15:45.730Z,28.10
2017-05-30T03:18:13.604Z,25.72
2017-05-30T03:20:42.101Z,28.32
2017-05-30T03:23:09.945Z,27.46
2017-05-30T03:25:38.094Z,30.54
2017-05-30T03:28:05.948Z,26.54
2017-05-30T03:30:33.791Z,29.16
2017-05-30T03:33:01.666Z,31.72
2017-05-30T03:35:29.511Z,26.70
2017-05-30T03:37:57.359Z,27.36
2017-05-30T03:40:25.460Z,26.74
2017-05-30T03:42:53.313Z,30.06
2017-05-30T03:45:21.159Z,28.60
2017-05-30T03:47:49.031Z,31.84
2017-05-30T03:50:16.876Z,28.76
2017-05-30T03:52:44.728Z,30.44
2017-05-30T03:55:12.599Z,31.34
2017-05-30T03:57:40.450Z,25.98
2017-05-30T04:00:08.291Z,37.38
2017-05-30T04:02:36.496Z,37.72
2017-05-30T04:05:04.323Z,35.96
2017-05-30T04:07:32.181Z,45.64
2017-05-30T04:10:00.063Z,38.34
2017-05-30T04:12:27.929Z,34.60
2017-05-30T04:14:55.776Z,33.24
2017-05-30T04:17:23.648Z,36.20
2017-05-30T04:19:51.497Z,37.94
2017-05-30T04:22:19.348Z,36.36
2017-05-30T04:24:47.220Z,34.16
2017-05-30T04:27:15.071Z,39.48
2017-05-30T04:29:42.929Z,37.70
2017-05-30T04:32:10.899Z,32.24
2017-05-30T04:34:38.751Z,36.06
2017-05-30T04:37:06.600Z,30.02
2017-05-30T04:39:34.294Z,31.06
2017-05-30T04:42:01.745Z,27.92
2017-05-30T04:44:29.597Z,26.84
2017-05-30T04:46:57.477Z,28.00
2017-05-30T04:49:24.932Z,32.88
2017-05-30T04:51:52.781Z,26.90
2017-05-30T04:54:20.659Z,25.60
2017-05-30T04:56:48.509Z,21.84
2017-05-30T04:59:16.359Z,23.32
2017-05-30T05:01:44.252Z,25.10
2017-05-30T05:04:12.109Z,25.56
2017-05-30T05:06:39.953Z,26.60
2017-05-30T05:09:07.826Z,25.88
2017-05-30T05:11:35.673Z,25.18
2017-05-30T05:14:03.564Z,24.30
2017-05-30T05:16:31.036Z,22.42
2017-05-30T05:18:58.884Z,24.08
2017-05-30T05:21:26.742Z,23.96
2017-05-30T05:23:54.869Z,24.94
2017-05-30T05:26:22.717Z,27.42
2017-05-30T05:28:50.561Z,24.80
2017-05-30T05:31:18.588Z,25.28
2017-05-30T05:33:46.437Z,26.74
2017-05-30T05:36:14.289Z,28.76
2017-05-30T05:38:42.642Z,27.44
2017-05-30T05:41:10.497Z,28.36
2017-05-30T05:43:38.352Z,28.90
2017-05-30T05:46:06.267Z,27.56
2017-05-30T05:48:34.094Z,25.26
2017-05-30T05:51:01.945Z,25.76
2017-05-30T05:53:30.028Z,27.64
2017-05-30T05:55:57.479Z,26.92
2017-05-30T05:58:25.351Z,26.28
2017-05-30T06:00:52.832Z,24.56
2017-05-30T06:03:20.689Z,27.52
2017-05-30T06:05:48.539Z,26.56
2017-05-30T06:08:16.430Z,25.60
2017-05-30T06:10:43.876Z,23.96
2017-05-30T06:13:11.734Z,24.10
2017-05-30T06:15:39.889Z,26.80
2017-05-30T06:18:07.739Z,26.20
2017-05-30T06:20:35.592Z,26.10
2017-05-30T06:23:03.472Z,23.42
2017-05-30T06:25:31.328Z,26.38
2017-05-30T06:27:59.180Z,27.88
2017-05-30T06:30:27.064Z,29.26
2017-05-30T06:32:54.914Z,29.12
2017-05-30T06:35:22.367Z,32.06
2017-05-30T06:37:50.245Z,30.44
2017-05-30T06:40:17.692Z,30.84
2017-05-30T06:42:45.541Z,31.26
2017-05-30T06:45:13.707Z,30.14
2017-05-30T06:47:41.564Z,37.24
2017-05-30T06:50:09.412Z,30.24
2017-05-30T06:52:37.656Z,32.02
2017-05-30T06:55:05.504Z,29.78
2017-05-30T06:57:33.550Z,35.48
2017-05-30T07:00:01.704Z,31.94
2017-05-30T07:02:29.552Z,31.02
2017-05-30T07:04:57.405Z,34.00
2017-05-30T07:07:25.569Z,32.88
2017-05-30T07:09:53.428Z,33.54
2017-05-30T07:12:21.272Z,34.30
2017-05-30T07:14:49.176Z,31.80
2017-05-30T07:17:17.036Z,32.36
2017-05-30T07:19:44.885Z,30.42
2017-05-30T07:22:12.757Z,33.50
2017-05-30T07:24:40.612Z,29.90
2017-05-30T07:27:08.464Z,30.60
2017-05-30T07:29:36.352Z,32.72
2017-05-30T07:32:04.196Z,31.84
2017-05-30T07:34:32.043Z,34.74
2017-05-30T07:36:59.536Z,30.00
2017-05-30T07:39:27.387Z,32.52
2017-05-30T07:41:54.845Z,31.44
2017-05-30T07:44:22.319Z,34.60
2017-05-30T07:46:50.168Z,31.60
2017-05-30T07:49:18.020Z,32.66
2017-05-30T07:51:48.493Z,32.06
2017-05-30T07:54:15.967Z,29.66
2017-05-30T07:56:43.816Z,31.02
2017-05-30T07:59:12.334Z,30.30
2017-05-30T08:01:39.794Z,29.62
2017-05-30T08:04:07.637Z,27.24
2017-05-30T08:06:35.800Z,29.76
2017-05-30T08:09:03.644Z,26.74
2017-05-30T08:11:31.494Z,30.18
2017-05-30T08:13:59.389Z,25.80
2017-05-30T08:16:27.486Z,26.16
2017-05-30T08:18:55.563Z,28.64
2017-05-30T08:21:23.920Z,25.78
2017-05-30T08:23:52.100Z,25.64
2017-05-30T08:26:19.571Z,24.14
2017-05-30T08:28:47.628Z,27.08
2017-05-30T08:31:16.016Z,30.42
2017-05-30T08:33:43.881Z,27.66
2017-05-30T08:36:11.768Z,25.58
2017-05-30T08:38:39.635Z,28.34
2017-05-30T08:41:07.510Z,31.40
2017-05-30T08:43:35.451Z,30.96
2017-05-30T08:46:03.307Z,34.12
2017-05-30T08:48:31.159Z,30.74
2017-05-30T08:50:59.052Z,34.32
2017-05-30T08:53:26.905Z,32.68
2017-05-30T08:55:54.752Z,35.52
2017-05-30T08:58:23.122Z,33.98
2017-05-30T09:00:50.967Z,46.46
2017-05-30T09:03:18.423Z,38.42
2017-05-30T09:05:46.309Z,37.10
2017-05-30T09:08:14.156Z,38.46
2017-05-30T09:10:41.604Z,37.70
2017-05-30T09:13:09.089Z,40.50
2017-05-30T09:15:36.545Z,39.68
2017-05-30T09:18:04.400Z,42.60
2017-05-30T09:20:31.883Z,41.10
2017-05-30T09:22:59.739Z,42.54
2017-05-30T09:25:27.589Z,39.66
2017-05-30T09:27:56.655Z,37.74
2017-05-30T09:30:24.505Z,38.98
2017-05-30T09:32:52.355Z,39.72
2017-05-30T09:35:20.236Z,41.50
2017-05-30T09:37:48.095Z,38.80
2017-05-30T09:40:18.496Z,41.94
2017-05-30T09:42:46.374Z,41.18
2017-05-30T09:45:14.404Z,41.36
2017-05-30T09:47:42.269Z,37.50
2017-05-30T09:50:10.142Z,33.86
2017-05-30T09:52:38.002Z,33.12
2017-05-30T09:55:05.855Z,31.24
2017-05-30T09:57:33.736Z,30.44
2017-05-30T10:00:01.876Z,32.68
2017-05-30T10:02:29.347Z,28.34
2017-05-30T10:04:57.303Z,29.86
2017-05-30T10:07:25.151Z,30.98
2017-05-30T10:09:53.000Z,26.52
2017-05-30T10:12:21.223Z,25.06
2017-05-30T10:14:49.604Z,24.02
2017-05-30T10:17:17.460Z,23.16
2017-05-30T10:19:45.363Z,25.18
2017-05-30T10:22:13.216Z,26.14
2017-05-30T10:24:41.064Z,23.68
2017-05-30T10:27:09.155Z,27.66
2017-05-30T10:29:37.017Z,30.50
2017-05-30T10:32:04.468Z,28.42
2017-05-30T10:34:32.351Z,28.74
2017-05-30T10:37:00.201Z,24.50
2017-05-30T10:39:28.058Z,24.54
2017-05-30T10:41:55.940Z,20.06
2017-05-30T10:44:23.797Z,20.90
2017-05-30T10:46:52.014Z,22.38
2017-05-30T10:49:20.240Z,19.58
2017-05-30T10:51:48.092Z,20.18
2017-05-30T10:54:15.939Z,19.36
2017-05-30T10:56:43.439Z,17.48
2017-05-30T10:59:10.892Z,17.50
2017-05-30T11:01:39.640Z,17.72
2017-05-30T11:04:07.528Z,18.38
2017-05-30T11:06:35.380Z,17.32
2017-05-30T11:09:03.240Z,17.26
2017-05-30T11:11:31.446Z,18.00
2017-05-30T11:13:58.905Z,15.98
2017-05-30T11:16:26.763Z,13.48
2017-05-30T11:18:54.251Z,14.74
2017-05-30T11:21:22.131Z,14.60
2017-05-30T11:23:49.984Z,13.16
2017-05-30T11:26:18.103Z,13.08
2017-05-30T11:28:45.966Z,13.82
2017-05-30T11:31:13.811Z,13.12
2017-05-30T11:33:42.113Z,11.50
2017-05-30T11:36:10.373Z,20.92
2017-05-30T11:38:37.824Z,22.36
2017-05-30T11:41:05.955Z,21.12
2017-05-30T11:43:33.826Z,23.70
2017-05-30T11:46:01.682Z,26.42
2017-05-30T11:48:29.714Z,21.52
2017-05-30T11:50:57.182Z,22.02
2017-05-30T11:53:24.819Z,26.06
2017-05-30T11:55:52.712Z,27.48
2017-05-30T11:58:20.174Z,29.76
2017-05-30T12:00:48.284Z,32.32
2017-05-30T12:03:17.071Z,34.04
2017-05-30T12:05:44.915Z,40.68
2017-05-30T12:08:12.778Z,38.38
2017-05-30T12:10:40.825Z,32.48
2017-05-30T12:13:08.674Z,31.94
2017-05-30T12:15:36.551Z,33.20
2017-05-30T12:18:04.443Z,30.82
2017-05-30T12:20:32.305Z,55.06
2017-05-30T12:23:00.174Z,28.86
2017-05-30T12:25:28.070Z,31.14
2017-05-30T12:27:56.172Z,32.30
2017-05-30T12:30:23.643Z,31.58
2017-05-30T12:32:51.755Z,32.52
2017-05-30T12:35:19.191Z,31.42
2017-05-30T12:37:47.035Z,28.20
2017-05-30T12:40:14.924Z,33.56
2017-05-30T12:42:42.787Z,33.54
2017-05-30T12:45:10.637Z,34.40
2017-05-30T12:47:38.767Z,31.58
2017-05-30T12:50:06.235Z,35.04
2017-05-30T12:52:34.079Z,34.96
2017-05-30T12:55:01.957Z,33.40
2017-05-30T12:57:29.412Z,33.58
2017-05-30T12:59:57.351Z,34.16
2017-05-30T13:02:25.259Z,36.22
2017-05-30T13:04:53.357Z,33.34
2017-05-30T13:07:21.200Z,32.68
2017-05-30T13:09:49.087Z,29.26
2017-05-30T13:12:16.545Z,29.44
2017-05-30T13:14:44.403Z,26.70
2017-05-30T13:17:12.398Z,29.76
2017-05-30T13:19:40.252Z,28.90
2017-05-30T13:22:08.104Z,30.16
2017-05-30T13:24:36.247Z,32.04
2017-05-30T13:27:04.093Z,31.88
2017-05-30T13:29:31.944Z,31.24
2017-05-30T13:32:00.068Z,29.76
2017-05-30T13:34:27.930Z,28.02
2017-05-30T13:36:55.783Z,28.26
2017-05-30T13:39:23.262Z,25.34
2017-05-30T13:41:50.736Z,27.80
2017-05-30T13:44:18.596Z,24.40
2017-05-30T13:46:46.768Z,24.48
2017-05-30T13:49:14.632Z,27.88
2017-05-30T13:51:42.083Z,27.78
2017-05-30T13:54:09.970Z,26.74
2017-05-30T13:56:37.821Z,27.08
2017-05-30T13:59:05.276Z,27.70
2017-05-30T14:01:33.311Z,32.82
2017-05-30T14:04:01.160Z,33.96
2017-05-30T14:06:29.031Z,31.00
2017-05-30T14:08:57.054Z,30.66
2017-05-30T14:11:24.918Z,30.32
2017-05-30T14:13:52.781Z,27.96
2017-05-30T14:16:20.664Z,24.72
2017-05-30T14:18:48.133Z,27.14
2017-05-30T14:21:16.199Z,23.64
2017-05-30T14:23:44.060Z,28.72
2017-05-30T14:26:11.930Z,29.52
2017-05-30T14:28:40.402Z,29.86
2017-05-30T14:31:08.280Z,27.22
2017-05-30T14:33:36.134Z,28.68
2017-05-30T14:36:03.585Z,29.56
2017-05-30T14:38:31.260Z,32.34
2017-05-30T14:40:59.126Z,29.04
2017-05-30T14:43:26.980Z,31.40
2017-05-30T14:45:55.160Z,31.30
2017-05-30T14:48:23.030Z,34.36
2017-05-30T14:50:50.876Z,31.52
2017-05-30T14:53:18.765Z,31.92
2017-05-30T14:55:46.644Z,31.32
2017-05-30T14:58:14.491Z,36.38
2017-05-30T15:00:43.471Z,44.06
2017-05-30T15:03:10.924Z,41.36
2017-05-30T15:05:38.791Z,41.12
2017-05-30T15:08:06.672Z,39.74
2017-05-30T15:10:35.102Z,38.60
2017-05-30T15:13:02.972Z,43.10
2017-05-30T15:15:31.068Z,45.40
2017-05-30T15:17:58.936Z,46.04
2017-05-30T15:20:26.780Z,46.26
2017-05-30T15:22:54.278Z,46.18
2017-05-30T15:25:21.740Z,49.70
2017-05-30T15:27:49.591Z,46.00
2017-05-30T15:30:17.636Z,54.60
2017-05-30T15:32:45.112Z,44.52
2017-05-30T15:35:13.195Z,46.04
2017-05-30T15:37:41.915Z,44.72
2017-05-30T15:40:09.778Z,41.92
2017-05-30T15:42:38.549Z,41.20
2017-05-30T15:45:06.440Z,42.84
2017-05-30T15:47:34.292Z,40.24
2017-05-30T15:50:02.157Z,40.50
2017-05-30T15:52:30.028Z,38.18
2017-05-30T15:54:57.892Z,37.76
2017-05-30T15:57:25.350Z,40.26
2017-05-30T15:59:53.554Z,36.10
2017-05-30T16:02:21.001Z,37.24
2017-05-30T16:04:48.853Z,39.62
2017-05-30T16:07:16.745Z,36.64
2017-05-30T16:09:46.201Z,37.22
2017-05-30T16:12:14.548Z,42.76
2017-05-30T16:14:42.437Z,39.48
2017-05-30T16:17:10.292Z,38.04
2017-05-30T16:19:38.201Z,36.56
2017-05-30T16:22:06.080Z,38.04
2017-05-30T16:24:33.950Z,33.54
2017-05-30T16:27:01.818Z,30.20
2017-05-30T16:29:29.761Z,34.76
2017-05-30T16:31:57.667Z,30.62
2017-05-30T16:34:25.610Z,31.30
2017-05-30T16:36:54.151Z,32.06
2017-05-30T16:39:22.068Z,27.10
2017-05-30T16:41:50.196Z,28.66
2017-05-30T16:44:17.747Z,30.88
2017-05-30T16:46:45.777Z,27.66
2017-05-30T16:49:13.760Z,24.82
2017-05-30T16:51:42.168Z,29.82
2017-05-30T16:54:10.083Z,22.84
2017-05-30T16:56:38.091Z,21.52
2017-05-30T16:59:06.638Z,21.84
2017-05-30T17:01:35.310Z,23.62
2017-05-30T17:04:03.417Z,23.56
2017-05-30T17:06:32.702Z,20.18
2017-05-30T17:09:01.193Z,18.90
2017-05-30T17:11:29.425Z,18.54
2017-05-30T17:13:57.657Z,37.42
2017-05-30T17:16:25.710Z,20.62
2017-05-30T17:18:54.615Z,21.04
2017-05-30T17:21:23.643Z,23.90
2017-05-30T17:23:52.639Z,20.16
2017-05-30T17:26:21.395Z,18.64
2017-05-30T17:28:50.225Z,22.34
2017-05-30T17:31:18.926Z,22.88
2017-05-30T17:33:47.442Z,15.42
2017-05-30T17:36:16.785Z,16.90
2017-05-30T17:38:45.215Z,19.90
2017-05-30T17:41:13.788Z,16.28
2017-05-30T17:43:43.036Z,17.78
2017-05-30T17:46:11.875Z,18.40
2017-05-30T17:48:41.708Z,14.06
2017-05-30T17:51:10.672Z,16.54
2017-05-30T17:53:39.888Z,15.66
2017-05-30T17:56:09.384Z,16.48
2017-05-30T17:58:37.952Z,9.74
2017-05-30T18:01:08.173Z,11.58
2017-05-30T18:03:37.393Z,9.86
2017-05-30T18:06:06.174Z,11.98
2017-05-30T18:08:35.013Z,10.36
2017-05-30T18:11:04.675Z,8.22
2017-05-30T18:13:33.540Z,8.42
2017-05-30T18:16:03.020Z,7.96
2017-05-30T18:18:31.657Z,7.70
2017-05-30T18:21:00.983Z,12.96
2017-05-30T18:23:29.884Z,8.70
2017-05-30T18:25:59.153Z,7.90
2017-05-30T18:28:28.055Z,9.20
2017-05-30T18:30:57.033Z,10.40
2017-05-30T18:33:26.361Z,11.56
2017-05-30T18:35:55.226Z,8.86
2017-05-30T18:38:26.570Z,9.42
2017-05-30T18:40:55.603Z,9.86
2017-05-30T18:43:26.087Z,8.84
2017-05-30T18:45:55.692Z,10.34
2017-05-30T18:48:25.527Z,9.32
2017-05-30T18:50:54.488Z,11.24
2017-05-30T18:53:25.159Z,10.72
2017-05-30T18:55:54.298Z,13.10
2017-05-30T18:58:24.232Z,43.30
2017-05-30T19:00:53.292Z,65.62
2017-05-30T19:03:22.230Z,14.10
2017-05-30T19:05:51.654Z,87.54
2017-05-30T19:08:21.023Z,22.62
2017-05-30T19:10:49.630Z,14.44
2017-05-30T19:13:19.794Z,12.82
2017-05-30T19:15:49.112Z,16.36
2017-05-30T19:18:19.235Z,22.82
2017-05-30T19:20:48.954Z,14.40
2017-05-30T19:23:19.289Z,12.94
2017-05-30T19:25:48.203Z,16.76
2017-05-30T19:28:16.711Z,14.36
2017-05-30T19:30:46.080Z,14.04
2017-05-30T19:33:15.546Z,15.50
2017-05-30T19:35:44.488Z,15.20
2017-05-30T19:38:14.457Z,13.86
2017-05-30T19:40:43.608Z,12.26
2017-05-30T19:43:12.914Z,14.00
2017-05-30T19:45:43.216Z,13.56
2017-05-30T19:48:12.239Z,13.94
2017-05-30T19:50:42.302Z,14.12
2017-05-30T19:53:11.631Z,16.96
2017-05-30T19:55:42.616Z,17.10
2017-05-30T19:58:14.259Z,19.32
2017-05-30T20:00:44.699Z,19.94
2017-05-30T20:03:13.843Z,21.50
2017-05-30T20:05:42.903Z,21.58
2017-05-30T20:08:11.807Z,19.92
2017-05-30T20:10:44.938Z,27.46
2017-05-30T20:13:14.571Z,25.28
2017-05-30T20:15:43.646Z,24.50
2017-05-30T20:18:12.728Z,39.12
2017-05-30T20:20:41.649Z,35.72
2017-05-30T20:23:11.113Z,30.32
2017-05-30T20:25:40.015Z,22.74
2017-05-30T20:28:09.488Z,27.32
2017-05-30T20:30:38.626Z,27.18
2017-05-30T20:33:07.473Z,25.10
2017-05-30T20:35:35.934Z,36.66
2017-05-30T20:38:05.093Z,32.72
2017-05-30T20:40:34.265Z,28.72
2017-05-30T20:43:03.017Z,33.86
2017-05-30T20:45:31.649Z,38.06
2017-05-30T20:48:01.943Z,28.16
2017-05-30T20:50:31.159Z,31.62
2017-05-30T20:53:01.811Z,35.12
2017-05-30T20:55:31.180Z,26.62
2017-05-30T20:58:00.037Z,27.88
2017-05-30T21:00:28.888Z,32.10
2017-05-30T21:02:58.340Z,29.34
2017-05-30T21:05:27.081Z,30.54
2017-05-30T21:07:56.122Z,31.56
2017-05-30T21:10:25.433Z,31.58
2017-05-30T21:12:53.018Z,29.78
2017-05-30T21:15:21.043Z,31.66
2017-05-30T21:17:49.148Z,28.74
2017-05-30T21:20:17.569Z,30.96
2017-05-30T21:22:45.454Z,31.90
2017-05-30T21:25:13.000Z,36.06
2017-05-30T21:27:40.893Z,28.78
2017-05-30T21:30:08.804Z,29.80
2017-05-30T21:32:37.467Z,29.26
2017-05-30T21:35:04.978Z,34.14
2017-05-30T21:37:32.462Z,35.06
2017-05-30T21:40:00.983Z,29.04
2017-05-30T21:42:29.852Z,30.98
2017-05-30T21:44:57.763Z,37.12
2017-05-30T21:47:25.274Z,33.50
2017-05-30T21:49:52.775Z,33.54
2017-05-30T21:52:20.304Z,29.18
2017-05-30T21:54:48.313Z,31.30
2017-05-30T21:57:16.203Z,35.02
2017-05-30T21:59:43.690Z,27.34
2017-05-30T22:02:11.914Z,33.86
2017-05-30T22:04:39.813Z,33.18
2017-05-30T22:07:07.705Z,34.60
2017-05-30T22:09:35.842Z,31.24
2017-05-30T22:12:03.732Z,25.96
2017-05-30T22:14:31.214Z,31.16
2017-05-30T22:16:59.478Z,31.28
2017-05-30T22:19:27.373Z,27.30
2017-05-30T22:21:55.278Z,31.42
2017-05-30T22:24:22.789Z,30.86
2017-05-30T22:26:50.687Z,31.50
2017-05-30T22:29:18.582Z,29.26
2017-05-30T22:31:46.110Z,29.52
2017-05-30T22:34:14.005Z,29.32
2017-05-30T22:36:42.286Z,27.02
2017-05-30T22:39:10.399Z,27.96
2017-05-30T22:41:38.272Z,29.46
2017-05-30T22:44:05.768Z,26.92
2017-05-30T22:46:33.710Z,25.20
2017-05-30T22:49:01.836Z,26.50
2017-05-30T22:51:29.726Z,24.34
2017-05-30T22:53:57.667Z,25.90
2017-05-30T22:56:25.576Z,23.56
2017-05-30T22:58:53.492Z,21.48
2017-05-30T23:01:21.377Z,17.72
2017-05-30T23:03:49.267Z,21.50
2017-05-30T23:06:16.746Z,20.22
2017-05-30T23:08:44.675Z,18.86
2017-05-30T23:11:12.560Z,20.34
2017-05-30T23:13:40.442Z,21.64
2017-05-30T23:16:07.949Z,19.52
2017-05-30T23:18:35.827Z,19.16
2017-05-30T23:21:03.731Z,17.30
2017-05-30T23:23:31.333Z,21.68
2017-05-30T23:25:59.209Z,18.22
2017-05-30T23:28:26.706Z,19.74
2017-05-30T23:30:54.868Z,19.22
2017-05-30T23:33:22.750Z,22.46
2017-05-30T23:35:50.558Z,21.56
2017-05-30T23:38:18.466Z,24.54
2017-05-30T23:40:46.349Z,17.40
2017-05-30T23:43:14.230Z,22.30
2017-05-30T23:45:42.220Z,21.36
2017-05-30T23:48:09.717Z,19.16
2017-05-30T23:50:37.595Z,18.88
2017-05-30T23:53:05.530Z,22.48
2017-05-30T23:55:33.406Z,22.40
2017-05-30T23:58:01.282Z,23.20
